sensor_id;sensor_type;location;lat;lon;timestamp;P1;durP1;ratioP1;P2;durP2;ratioP2
64395;SDS011;50717;53.360;6.290;2023-03-23T00:01:17;6.05;;;4.00;;
64395;SDS011;50717;53.360;6.290;2023-03-23T00:03:45;9.60;;;4.80;;
64395;SDS011;50717;53.360;6.290;2023-03-23T00:06:12;9.27;;;4.60;;
64395;SDS011;50717;53.360;6.290;2023-03-23T00:08:43;10.73;;;6.22;;
64395;SDS011;50717;53.360;6.290;2023-03-23T00:11:30;11.70;;;7.47;;
64395;SDS011;50717;53.360;6.290;2023-03-23T00:13:57;17.52;;;8.65;;
64395;SDS011;50717;53.360;6.290;2023-03-23T00:16:31;12.82;;;8.60;;
64395;SDS011;50717;53.360;6.290;2023-03-23T00:19:02;15.68;;;10.68;;
64395;SDS011;50717;53.360;6.290;2023-03-23T00:21:46;21.40;;;12.13;;
64395;SDS011;50717;53.360;6.290;2023-03-23T00:24:13;20.25;;;12.68;;
64395;SDS011;50717;53.360;6.290;2023-03-23T00:26:41;20.25;;;11.85;;
64395;SDS011;50717;53.360;6.290;2023-03-23T00:29:12;19.00;;;11.75;;
64395;SDS011;50717;53.360;6.290;2023-03-23T00:31:41;20.85;;;12.15;;
64395;SDS011;50717;53.360;6.290;2023-03-23T00:34:12;19.95;;;11.75;;
64395;SDS011;50717;53.360;6.290;2023-03-23T00:36:44;18.33;;;12.20;;
64395;SDS011;50717;53.360;6.290;2023-03-23T00:39:18;17.52;;;11.02;;
64395;SDS011;50717;53.360;6.290;2023-03-23T00:41:44;16.95;;;10.20;;
64395;SDS011;50717;53.360;6.290;2023-03-23T00:44:11;18.20;;;10.27;;
64395;SDS011;50717;53.360;6.290;2023-03-23T00:46:44;13.80;;;10.02;;
64395;SDS011;50717;53.360;6.290;2023-03-23T00:49:12;21.38;;;12.95;;
64395;SDS011;50717;53.360;6.290;2023-03-23T00:51:38;28.48;;;18.27;;
64395;SDS011;50717;53.360;6.290;2023-03-23T00:54:04;30.02;;;21.00;;
64395;SDS011;50717;53.360;6.290;2023-03-23T00:56:30;38.70;;;24.17;;
64395;SDS011;50717;53.360;6.290;2023-03-23T00:58:56;36.00;;;24.48;;
64395;SDS011;50717;53.360;6.290;2023-03-23T01:01:22;45.55;;;26.98;;
64395;SDS011;50717;53.360;6.290;2023-03-23T01:03:48;47.17;;;28.45;;
64395;SDS011;50717;53.360;6.290;2023-03-23T01:06:14;44.83;;;30.05;;
64395;SDS011;50717;53.360;6.290;2023-03-23T01:08:41;41.45;;;27.73;;
64395;SDS011;50717;53.360;6.290;2023-03-23T01:11:14;44.47;;;29.20;;
64395;SDS011;50717;53.360;6.290;2023-03-23T01:13:43;39.20;;;27.33;;
64395;SDS011;50717;53.360;6.290;2023-03-23T01:16:10;39.40;;;26.05;;
64395;SDS011;50717;53.360;6.290;2023-03-23T01:18:36;40.22;;;25.42;;
64395;SDS011;50717;53.360;6.290;2023-03-23T01:21:13;36.45;;;23.13;;
64395;SDS011;50717;53.360;6.290;2023-03-23T01:23:41;35.78;;;23.20;;
64395;SDS011;50717;53.360;6.290;2023-03-23T01:26:12;39.10;;;23.02;;
64395;SDS011;50717;53.360;6.290;2023-03-23T01:28:39;33.75;;;22.13;;
64395;SDS011;50717;53.360;6.290;2023-03-23T01:31:06;31.20;;;21.30;;
64395;SDS011;50717;53.360;6.290;2023-03-23T01:33:33;30.17;;;20.00;;
64395;SDS011;50717;53.360;6.290;2023-03-23T01:36:03;27.95;;;18.50;;
64395;SDS011;50717;53.360;6.290;2023-03-23T01:38:31;25.20;;;16.98;;
64395;SDS011;50717;53.360;6.290;2023-03-23T01:40:57;25.50;;;16.88;;
64395;SDS011;50717;53.360;6.290;2023-03-23T01:43:23;21.13;;;15.25;;
64395;SDS011;50717;53.360;6.290;2023-03-23T01:45:48;21.20;;;14.70;;
64395;SDS011;50717;53.360;6.290;2023-03-23T01:50:48;20.52;;;13.60;;
64395;SDS011;50717;53.360;6.290;2023-03-23T01:53:19;23.13;;;13.73;;
64395;SDS011;50717;53.360;6.290;2023-03-23T01:55:47;21.20;;;13.90;;
64395;SDS011;50717;53.360;6.290;2023-03-23T01:58:15;23.42;;;13.38;;
64395;SDS011;50717;53.360;6.290;2023-03-23T02:00:44;17.63;;;12.57;;
64395;SDS011;50717;53.360;6.290;2023-03-23T02:05:41;27.23;;;14.05;;
64395;SDS011;50717;53.360;6.290;2023-03-23T02:08:08;26.77;;;14.10;;
64395;SDS011;50717;53.360;6.290;2023-03-23T02:10:35;22.30;;;14.27;;
64395;SDS011;50717;53.360;6.290;2023-03-23T02:13:03;24.15;;;13.65;;
64395;SDS011;50717;53.360;6.290;2023-03-23T02:15:37;22.27;;;13.88;;
64395;SDS011;50717;53.360;6.290;2023-03-23T02:18:38;20.48;;;13.55;;
64395;SDS011;50717;53.360;6.290;2023-03-23T02:26:53;21.25;;;13.15;;
64395;SDS011;50717;53.360;6.290;2023-03-23T02:37:49;21.30;;;12.70;;
64395;SDS011;50717;53.360;6.290;2023-03-23T02:39:58;20.67;;;11.57;;
64395;SDS011;50717;53.360;6.290;2023-03-23T02:42:39;22.48;;;11.43;;
64395;SDS011;50717;53.360;6.290;2023-03-23T02:45:09;18.50;;;11.18;;
64395;SDS011;50717;53.360;6.290;2023-03-23T02:47:37;22.02;;;11.93;;
64395;SDS011;50717;53.360;6.290;2023-03-23T02:50:05;20.52;;;11.50;;
64395;SDS011;50717;53.360;6.290;2023-03-23T02:52:33;17.27;;;10.88;;
64395;SDS011;50717;53.360;6.290;2023-03-23T02:55:02;19.33;;;10.68;;
64395;SDS011;50717;53.360;6.290;2023-03-23T02:57:28;17.30;;;10.07;;
64395;SDS011;50717;53.360;6.290;2023-03-23T02:59:56;21.48;;;10.75;;
64395;SDS011;50717;53.360;6.290;2023-03-23T03:05:02;20.02;;;8.80;;
64395;SDS011;50717;53.360;6.290;2023-03-23T03:07:44;17.67;;;8.93;;
64395;SDS011;50717;53.360;6.290;2023-03-23T03:13:11;17.52;;;9.00;;
64395;SDS011;50717;53.360;6.290;2023-03-23T03:19:09;18.67;;;9.52;;
64395;SDS011;50717;53.360;6.290;2023-03-23T03:21:50;17.55;;;8.35;;
64395;SDS011;50717;53.360;6.290;2023-03-23T03:24:19;12.23;;;8.15;;
64395;SDS011;50717;53.360;6.290;2023-03-23T03:26:48;19.02;;;8.90;;
64395;SDS011;50717;53.360;6.290;2023-03-23T03:29:16;13.57;;;8.35;;
64395;SDS011;50717;53.360;6.290;2023-03-23T03:31:45;14.45;;;8.50;;
64395;SDS011;50717;53.360;6.290;2023-03-23T03:34:13;15.25;;;8.73;;
64395;SDS011;50717;53.360;6.290;2023-03-23T03:36:43;17.00;;;8.40;;
64395;SDS011;50717;53.360;6.290;2023-03-23T03:39:11;11.38;;;7.88;;
64395;SDS011;50717;53.360;6.290;2023-03-23T03:41:39;17.60;;;9.10;;
64395;SDS011;50717;53.360;6.290;2023-03-23T03:44:06;18.30;;;8.35;;
64395;SDS011;50717;53.360;6.290;2023-03-23T03:48:58;13.88;;;7.80;;
64395;SDS011;50717;53.360;6.290;2023-03-23T03:51:25;17.42;;;8.23;;
64395;SDS011;50717;53.360;6.290;2023-03-23T03:53:52;13.82;;;7.40;;
64395;SDS011;50717;53.360;6.290;2023-03-23T03:56:18;13.90;;;7.60;;
64395;SDS011;50717;53.360;6.290;2023-03-23T03:58:47;18.20;;;5.43;;
64395;SDS011;50717;53.360;6.290;2023-03-23T04:01:14;11.98;;;6.05;;
64395;SDS011;50717;53.360;6.290;2023-03-23T04:03:42;13.95;;;6.95;;
64395;SDS011;50717;53.360;6.290;2023-03-23T04:08:34;11.67;;;6.67;;
64395;SDS011;50717;53.360;6.290;2023-03-23T04:11:03;14.77;;;6.72;;
64395;SDS011;50717;53.360;6.290;2023-03-23T04:13:29;12.65;;;7.20;;
64395;SDS011;50717;53.360;6.290;2023-03-23T04:15:55;15.65;;;8.10;;
64395;SDS011;50717;53.360;6.290;2023-03-23T04:18:21;14.82;;;7.35;;
64395;SDS011;50717;53.360;6.290;2023-03-23T04:23:17;17.20;;;7.25;;
64395;SDS011;50717;53.360;6.290;2023-03-23T04:25:48;18.13;;;6.15;;
64395;SDS011;50717;53.360;6.290;2023-03-23T04:28:15;14.85;;;6.63;;
64395;SDS011;50717;53.360;6.290;2023-03-23T04:30:48;13.20;;;6.03;;
64395;SDS011;50717;53.360;6.290;2023-03-23T04:33:18;16.38;;;6.25;;
64395;SDS011;50717;53.360;6.290;2023-03-23T04:35:45;16.13;;;6.90;;
64395;SDS011;50717;53.360;6.290;2023-03-23T04:38:13;12.90;;;5.93;;
64395;SDS011;50717;53.360;6.290;2023-03-23T04:40:41;11.82;;;6.03;;
64395;SDS011;50717;53.360;6.290;2023-03-23T04:43:07;13.15;;;6.03;;
64395;SDS011;50717;53.360;6.290;2023-03-23T04:45:34;15.43;;;4.97;;
64395;SDS011;50717;53.360;6.290;2023-03-23T04:48:03;16.88;;;4.60;;
64395;SDS011;50717;53.360;6.290;2023-03-23T04:50:30;11.57;;;4.03;;
64395;SDS011;50717;53.360;6.290;2023-03-23T04:52:58;19.08;;;3.65;;
64395;SDS011;50717;53.360;6.290;2023-03-23T04:55:29;14.02;;;3.28;;
64395;SDS011;50717;53.360;6.290;2023-03-23T04:58:01;17.85;;;3.83;;
64395;SDS011;50717;53.360;6.290;2023-03-23T05:00:31;12.48;;;3.65;;
64395;SDS011;50717;53.360;6.290;2023-03-23T05:02:58;15.50;;;3.50;;
64395;SDS011;50717;53.360;6.290;2023-03-23T05:05:26;13.93;;;3.65;;
64395;SDS011;50717;53.360;6.290;2023-03-23T05:07:54;15.27;;;3.40;;
64395;SDS011;50717;53.360;6.290;2023-03-23T05:12:46;19.83;;;3.22;;
64395;SDS011;50717;53.360;6.290;2023-03-23T05:15:13;23.50;;;3.78;;
64395;SDS011;50717;53.360;6.290;2023-03-23T05:17:40;24.63;;;4.03;;
64395;SDS011;50717;53.360;6.290;2023-03-23T05:20:12;22.50;;;3.78;;
64395;SDS011;50717;53.360;6.290;2023-03-23T05:22:40;23.70;;;4.40;;
64395;SDS011;50717;53.360;6.290;2023-03-23T05:25:07;20.00;;;4.50;;
64395;SDS011;50717;53.360;6.290;2023-03-23T05:27:36;20.70;;;3.90;;
64395;SDS011;50717;53.360;6.290;2023-03-23T05:32:29;17.48;;;4.18;;
64395;SDS011;50717;53.360;6.290;2023-03-23T05:34:56;20.77;;;3.90;;
64395;SDS011;50717;53.360;6.290;2023-03-23T05:37:23;19.17;;;3.85;;
64395;SDS011;50717;53.360;6.290;2023-03-23T05:39:52;23.80;;;5.53;;
64395;SDS011;50717;53.360;6.290;2023-03-23T05:42:19;24.88;;;4.55;;
64395;SDS011;50717;53.360;6.290;2023-03-23T05:44:49;24.98;;;4.72;;
64395;SDS011;50717;53.360;6.290;2023-03-23T05:47:15;27.75;;;4.93;;
64395;SDS011;50717;53.360;6.290;2023-03-23T05:49:42;24.05;;;4.38;;
64395;SDS011;50717;53.360;6.290;2023-03-23T05:52:07;23.70;;;4.65;;
64395;SDS011;50717;53.360;6.290;2023-03-23T05:54:34;19.65;;;4.20;;
64395;SDS011;50717;53.360;6.290;2023-03-23T05:56:59;23.38;;;5.05;;
64395;SDS011;50717;53.360;6.290;2023-03-23T05:59:25;27.42;;;4.72;;
64395;SDS011;50717;53.360;6.290;2023-03-23T06:01:51;31.27;;;4.20;;
64395;SDS011;50717;53.360;6.290;2023-03-23T06:04:20;25.98;;;4.80;;
64395;SDS011;50717;53.360;6.290;2023-03-23T06:06:50;26.80;;;5.03;;
64395;SDS011;50717;53.360;6.290;2023-03-23T06:09:17;27.27;;;5.05;;
64395;SDS011;50717;53.360;6.290;2023-03-23T06:11:43;24.80;;;4.82;;
64395;SDS011;50717;53.360;6.290;2023-03-23T06:14:09;26.30;;;4.35;;
64395;SDS011;50717;53.360;6.290;2023-03-23T06:16:34;22.70;;;4.25;;
64395;SDS011;50717;53.360;6.290;2023-03-23T06:19:00;25.15;;;5.15;;
64395;SDS011;50717;53.360;6.290;2023-03-23T06:21:29;27.23;;;5.00;;
64395;SDS011;50717;53.360;6.290;2023-03-23T06:23:58;18.23;;;4.00;;
64395;SDS011;50717;53.360;6.290;2023-03-23T06:26:34;20.67;;;3.28;;
64395;SDS011;50717;53.360;6.290;2023-03-23T06:29:01;21.23;;;3.60;;
64395;SDS011;50717;53.360;6.290;2023-03-23T06:31:29;15.35;;;2.88;;
64395;SDS011;50717;53.360;6.290;2023-03-23T06:33:58;7.72;;;2.50;;
64395;SDS011;50717;53.360;6.290;2023-03-23T06:36:23;10.75;;;2.45;;
64395;SDS011;50717;53.360;6.290;2023-03-23T06:38:51;10.85;;;3.05;;
64395;SDS011;50717;53.360;6.290;2023-03-23T06:41:17;8.60;;;2.50;;
64395;SDS011;50717;53.360;6.290;2023-03-23T06:43:43;11.38;;;2.03;;
64395;SDS011;50717;53.360;6.290;2023-03-23T06:46:11;7.53;;;2.00;;
64395;SDS011;50717;53.360;6.290;2023-03-23T06:48:36;7.60;;;1.77;;
64395;SDS011;50717;53.360;6.290;2023-03-23T06:51:03;8.55;;;2.25;;
64395;SDS011;50717;53.360;6.290;2023-03-23T06:53:29;14.27;;;2.53;;
64395;SDS011;50717;53.360;6.290;2023-03-23T06:55:55;9.63;;;2.40;;
64395;SDS011;50717;53.360;6.290;2023-03-23T06:58:21;12.90;;;2.58;;
64395;SDS011;50717;53.360;6.290;2023-03-23T07:00:52;14.95;;;2.97;;
64395;SDS011;50717;53.360;6.290;2023-03-23T07:03:21;13.85;;;2.65;;
64395;SDS011;50717;53.360;6.290;2023-03-23T07:05:47;15.00;;;2.58;;
64395;SDS011;50717;53.360;6.290;2023-03-23T07:08:14;16.27;;;2.75;;
64395;SDS011;50717;53.360;6.290;2023-03-23T07:10:39;14.32;;;2.58;;
64395;SDS011;50717;53.360;6.290;2023-03-23T07:13:05;13.18;;;2.92;;
64395;SDS011;50717;53.360;6.290;2023-03-23T07:15:31;21.05;;;3.30;;
64395;SDS011;50717;53.360;6.290;2023-03-23T07:17:56;19.05;;;4.40;;
64395;SDS011;50717;53.360;6.290;2023-03-23T07:20:22;17.33;;;4.03;;
64395;SDS011;50717;53.360;6.290;2023-03-23T07:22:48;21.70;;;4.15;;
64395;SDS011;50717;53.360;6.290;2023-03-23T07:25:14;18.98;;;4.20;;
64395;SDS011;50717;53.360;6.290;2023-03-23T07:27:41;18.88;;;3.60;;
64395;SDS011;50717;53.360;6.290;2023-03-23T07:30:07;22.60;;;4.25;;
64395;SDS011;50717;53.360;6.290;2023-03-23T07:34:59;23.15;;;4.50;;
64395;SDS011;50717;53.360;6.290;2023-03-23T07:37:25;23.30;;;4.28;;
64395;SDS011;50717;53.360;6.290;2023-03-23T07:39:51;28.42;;;5.57;;
64395;SDS011;50717;53.360;6.290;2023-03-23T07:42:17;28.90;;;4.50;;
64395;SDS011;50717;53.360;6.290;2023-03-23T07:44:43;28.48;;;4.78;;
64395;SDS011;50717;53.360;6.290;2023-03-23T07:47:09;29.08;;;4.75;;
64395;SDS011;50717;53.360;6.290;2023-03-23T07:49:34;33.33;;;5.85;;
64395;SDS011;50717;53.360;6.290;2023-03-23T07:52:00;35.60;;;6.22;;
64395;SDS011;50717;53.360;6.290;2023-03-23T07:54:27;36.22;;;5.78;;
64395;SDS011;50717;53.360;6.290;2023-03-23T07:56:53;35.17;;;6.05;;
64395;SDS011;50717;53.360;6.290;2023-03-23T07:59:19;35.53;;;5.75;;
64395;SDS011;50717;53.360;6.290;2023-03-23T08:04:11;36.67;;;5.43;;
64395;SDS011;50717;53.360;6.290;2023-03-23T08:06:38;37.75;;;6.38;;
64395;SDS011;50717;53.360;6.290;2023-03-23T08:09:04;38.67;;;6.13;;
64395;SDS011;50717;53.360;6.290;2023-03-23T08:11:34;31.40;;;5.80;;
64395;SDS011;50717;53.360;6.290;2023-03-23T08:14:00;32.33;;;5.20;;
64395;SDS011;50717;53.360;6.290;2023-03-23T08:16:27;33.75;;;5.15;;
64395;SDS011;50717;53.360;6.290;2023-03-23T08:18:53;36.28;;;5.90;;
64395;SDS011;50717;53.360;6.290;2023-03-23T08:21:18;38.67;;;6.20;;
64395;SDS011;50717;53.360;6.290;2023-03-23T08:23:45;24.83;;;5.47;;
64395;SDS011;50717;53.360;6.290;2023-03-23T08:26:12;35.75;;;5.65;;
64395;SDS011;50717;53.360;6.290;2023-03-23T08:28:40;27.90;;;5.28;;
64395;SDS011;50717;53.360;6.290;2023-03-23T08:31:12;32.65;;;5.32;;
64395;SDS011;50717;53.360;6.290;2023-03-23T08:33:39;38.58;;;6.45;;
64395;SDS011;50717;53.360;6.290;2023-03-23T08:36:06;32.65;;;6.70;;
64395;SDS011;50717;53.360;6.290;2023-03-23T08:38:33;38.70;;;6.30;;
64395;SDS011;50717;53.360;6.290;2023-03-23T08:41:04;29.42;;;5.43;;
64395;SDS011;50717;53.360;6.290;2023-03-23T08:43:33;32.28;;;5.93;;
64395;SDS011;50717;53.360;6.290;2023-03-23T08:46:00;43.28;;;6.10;;
64395;SDS011;50717;53.360;6.290;2023-03-23T08:48:31;29.00;;;5.22;;
64395;SDS011;50717;53.360;6.290;2023-03-23T08:50:58;32.03;;;5.15;;
64395;SDS011;50717;53.360;6.290;2023-03-23T08:55:51;35.17;;;6.00;;
64395;SDS011;50717;53.360;6.290;2023-03-23T08:58:16;38.20;;;6.10;;
64395;SDS011;50717;53.360;6.290;2023-03-23T09:00:43;33.50;;;6.18;;
64395;SDS011;50717;53.360;6.290;2023-03-23T09:03:09;25.60;;;4.75;;
64395;SDS011;50717;53.360;6.290;2023-03-23T09:05:34;35.00;;;5.85;;
64395;SDS011;50717;53.360;6.290;2023-03-23T09:08:02;31.83;;;5.82;;
64395;SDS011;50717;53.360;6.290;2023-03-23T09:10:29;30.15;;;5.63;;
64395;SDS011;50717;53.360;6.290;2023-03-23T09:12:57;29.25;;;5.95;;
64395;SDS011;50717;53.360;6.290;2023-03-23T09:15:23;33.08;;;5.28;;
64395;SDS011;50717;53.360;6.290;2023-03-23T09:17:49;32.55;;;5.80;;
64395;SDS011;50717;53.360;6.290;2023-03-23T09:20:17;33.08;;;5.20;;
64395;SDS011;50717;53.360;6.290;2023-03-23T09:22:46;26.23;;;4.82;;
64395;SDS011;50717;53.360;6.290;2023-03-23T09:25:15;32.50;;;5.28;;
64395;SDS011;50717;53.360;6.290;2023-03-23T09:27:44;40.50;;;6.50;;
64395;SDS011;50717;53.360;6.290;2023-03-23T09:30:12;30.25;;;4.70;;
64395;SDS011;50717;53.360;6.290;2023-03-23T09:32:39;26.50;;;5.05;;
64395;SDS011;50717;53.360;6.290;2023-03-23T09:35:09;30.35;;;5.35;;
64395;SDS011;50717;53.360;6.290;2023-03-23T09:37:37;28.10;;;6.97;;
64395;SDS011;50717;53.360;6.290;2023-03-23T09:40:04;21.98;;;4.82;;
64395;SDS011;50717;53.360;6.290;2023-03-23T09:53:58;29.92;;;4.80;;
64395;SDS011;50717;53.360;6.290;2023-03-23T09:56:29;29.75;;;4.97;;
64395;SDS011;50717;53.360;6.290;2023-03-23T09:59:02;30.90;;;5.35;;
64395;SDS011;50717;53.360;6.290;2023-03-23T10:01:44;33.38;;;4.75;;
64395;SDS011;50717;53.360;6.290;2023-03-23T10:04:23;19.60;;;4.78;;
64395;SDS011;50717;53.360;6.290;2023-03-23T10:09:45;22.75;;;4.35;;
64395;SDS011;50717;53.360;6.290;2023-03-23T10:20:10;30.55;;;4.80;;
64395;SDS011;50717;53.360;6.290;2023-03-23T10:25:48;26.05;;;5.20;;
64395;SDS011;50717;53.360;6.290;2023-03-23T10:28:21;20.33;;;4.68;;
64395;SDS011;50717;53.360;6.290;2023-03-23T10:31:00;20.10;;;4.97;;
64395;SDS011;50717;53.360;6.290;2023-03-23T10:33:32;23.63;;;4.63;;
64395;SDS011;50717;53.360;6.290;2023-03-23T10:36:08;32.05;;;5.30;;
64395;SDS011;50717;53.360;6.290;2023-03-23T10:38:48;24.65;;;4.45;;
64395;SDS011;50717;53.360;6.290;2023-03-23T10:41:19;23.13;;;4.18;;
64395;SDS011;50717;53.360;6.290;2023-03-23T10:43:47;24.77;;;5.63;;
64395;SDS011;50717;53.360;6.290;2023-03-23T10:49:25;23.15;;;4.03;;
64395;SDS011;50717;53.360;6.290;2023-03-23T10:52:11;31.45;;;4.78;;
64395;SDS011;50717;53.360;6.290;2023-03-23T10:57:31;28.63;;;5.03;;
64395;SDS011;50717;53.360;6.290;2023-03-23T10:59:59;30.08;;;5.40;;
64395;SDS011;50717;53.360;6.290;2023-03-23T11:02:31;23.02;;;5.18;;
64395;SDS011;50717;53.360;6.290;2023-03-23T11:05:03;17.63;;;4.75;;
64395;SDS011;50717;53.360;6.290;2023-03-23T11:07:39;26.65;;;4.60;;
64395;SDS011;50717;53.360;6.290;2023-03-23T11:10:06;24.67;;;4.85;;
64395;SDS011;50717;53.360;6.290;2023-03-23T11:12:43;37.95;;;5.47;;
64395;SDS011;50717;53.360;6.290;2023-03-23T11:15:30;25.40;;;4.65;;
64395;SDS011;50717;53.360;6.290;2023-03-23T11:18:08;26.55;;;4.95;;
64395;SDS011;50717;53.360;6.290;2023-03-23T11:20:39;20.38;;;4.57;;
64395;SDS011;50717;53.360;6.290;2023-03-23T11:23:07;26.48;;;5.53;;
64395;SDS011;50717;53.360;6.290;2023-03-23T11:25:51;29.25;;;4.95;;
64395;SDS011;50717;53.360;6.290;2023-03-23T11:28:21;31.67;;;5.38;;
64395;SDS011;50717;53.360;6.290;2023-03-23T11:30:52;28.17;;;4.90;;
64395;SDS011;50717;53.360;6.290;2023-03-23T11:33:19;26.75;;;5.00;;
64395;SDS011;50717;53.360;6.290;2023-03-23T11:35:45;20.63;;;4.05;;
64395;SDS011;50717;53.360;6.290;2023-03-23T11:40:47;18.65;;;4.47;;
64395;SDS011;50717;53.360;6.290;2023-03-23T11:43:14;18.05;;;3.65;;
64395;SDS011;50717;53.360;6.290;2023-03-23T11:45:48;20.60;;;4.32;;
64395;SDS011;50717;53.360;6.290;2023-03-23T11:51:31;19.10;;;4.55;;
64395;SDS011;50717;53.360;6.290;2023-03-23T11:56:43;23.90;;;3.85;;
64395;SDS011;50717;53.360;6.290;2023-03-23T11:59:14;18.63;;;3.92;;
64395;SDS011;50717;53.360;6.290;2023-03-23T12:13:41;18.02;;;3.42;;
64395;SDS011;50717;53.360;6.290;2023-03-23T12:19:17;18.58;;;3.85;;
64395;SDS011;50717;53.360;6.290;2023-03-23T12:25:02;18.90;;;4.05;;
64395;SDS011;50717;53.360;6.290;2023-03-23T12:27:55;24.13;;;3.70;;
64395;SDS011;50717;53.360;6.290;2023-03-23T12:33:25;24.77;;;5.13;;
64395;SDS011;50717;53.360;6.290;2023-03-23T12:39:14;23.90;;;4.32;;
64395;SDS011;50717;53.360;6.290;2023-03-23T12:44:53;22.33;;;4.22;;
64395;SDS011;50717;53.360;6.290;2023-03-23T12:47:41;21.50;;;3.67;;
64395;SDS011;50717;53.360;6.290;2023-03-23T12:58:27;16.30;;;3.50;;
64395;SDS011;50717;53.360;6.290;2023-03-23T13:03:38;19.92;;;3.53;;
64395;SDS011;50717;53.360;6.290;2023-03-23T13:08:55;19.45;;;4.18;;
64395;SDS011;50717;53.360;6.290;2023-03-23T13:17:26;21.80;;;3.97;;
64395;SDS011;50717;53.360;6.290;2023-03-23T13:28:17;20.48;;;3.83;;
64395;SDS011;50717;53.360;6.290;2023-03-23T13:31:02;25.30;;;4.40;;
64395;SDS011;50717;53.360;6.290;2023-03-23T13:33:36;18.27;;;4.00;;
64395;SDS011;50717;53.360;6.290;2023-03-23T13:38:34;27.40;;;4.57;;
64395;SDS011;50717;53.360;6.290;2023-03-23T13:41:10;17.10;;;3.53;;
64395;SDS011;50717;53.360;6.290;2023-03-23T13:43:39;26.15;;;4.38;;
64395;SDS011;50717;53.360;6.290;2023-03-23T13:46:07;18.60;;;4.03;;
64395;SDS011;50717;53.360;6.290;2023-03-23T13:48:42;23.50;;;4.40;;
64395;SDS011;50717;53.360;6.290;2023-03-23T13:51:24;28.55;;;4.15;;
64395;SDS011;50717;53.360;6.290;2023-03-23T14:01:52;22.02;;;4.45;;
64395;SDS011;50717;53.360;6.290;2023-03-23T14:04:23;22.52;;;4.68;;
64395;SDS011;50717;53.360;6.290;2023-03-23T14:07:08;20.42;;;4.15;;
64395;SDS011;50717;53.360;6.290;2023-03-23T14:09:41;20.98;;;4.47;;
64395;SDS011;50717;53.360;6.290;2023-03-23T14:12:14;20.27;;;3.97;;
64395;SDS011;50717;53.360;6.290;2023-03-23T14:14:58;20.85;;;4.60;;
64395;SDS011;50717;53.360;6.290;2023-03-23T14:17:29;23.48;;;4.10;;
64395;SDS011;50717;53.360;6.290;2023-03-23T14:19:59;16.80;;;3.60;;
64395;SDS011;50717;53.360;6.290;2023-03-23T14:22:35;18.63;;;3.83;;
64395;SDS011;50717;53.360;6.290;2023-03-23T14:25:14;19.63;;;3.47;;
64395;SDS011;50717;53.360;6.290;2023-03-23T14:27:41;18.60;;;4.47;;
64395;SDS011;50717;53.360;6.290;2023-03-23T14:30:12;20.42;;;3.53;;
64395;SDS011;50717;53.360;6.290;2023-03-23T14:32:40;16.95;;;3.72;;
64395;SDS011;50717;53.360;6.290;2023-03-23T14:35:08;15.45;;;3.58;;
64395;SDS011;50717;53.360;6.290;2023-03-23T14:37:42;18.33;;;4.05;;
64395;SDS011;50717;53.360;6.290;2023-03-23T14:42:38;24.25;;;4.18;;
64395;SDS011;50717;53.360;6.290;2023-03-23T14:49:59;18.45;;;3.50;;
64395;SDS011;50717;53.360;6.290;2023-03-23T14:52:33;19.00;;;3.75;;
64395;SDS011;50717;53.360;6.290;2023-03-23T14:55:17;14.57;;;4.18;;
64395;SDS011;50717;53.360;6.290;2023-03-23T14:57:47;13.60;;;3.15;;
64395;SDS011;50717;53.360;6.290;2023-03-23T15:00:19;16.17;;;3.67;;
64395;SDS011;50717;53.360;6.290;2023-03-23T15:02:53;17.35;;;3.72;;
64395;SDS011;50717;53.360;6.290;2023-03-23T15:07:52;14.85;;;3.30;;
64395;SDS011;50717;53.360;6.290;2023-03-23T15:10:21;17.88;;;3.53;;
64395;SDS011;50717;53.360;6.290;2023-03-23T15:12:48;17.52;;;3.40;;
64395;SDS011;50717;53.360;6.290;2023-03-23T15:17:51;18.13;;;3.65;;
64395;SDS011;50717;53.360;6.290;2023-03-23T15:20:27;13.38;;;3.03;;
64395;SDS011;50717;53.360;6.290;2023-03-23T15:22:53;11.27;;;3.15;;
64395;SDS011;50717;53.360;6.290;2023-03-23T15:28:39;12.30;;;3.30;;
64395;SDS011;50717;53.360;6.290;2023-03-23T15:30:53;17.45;;;3.40;;
64395;SDS011;50717;53.360;6.290;2023-03-23T15:35:53;12.10;;;2.92;;
64395;SDS011;50717;53.360;6.290;2023-03-23T15:38:21;14.95;;;3.72;;
64395;SDS011;50717;53.360;6.290;2023-03-23T15:40:52;16.52;;;2.90;;
64395;SDS011;50717;53.360;6.290;2023-03-23T15:43:20;11.45;;;2.78;;
64395;SDS011;50717;53.360;6.290;2023-03-23T15:48:28;15.43;;;3.30;;
64395;SDS011;50717;53.360;6.290;2023-03-23T15:50:54;18.50;;;3.55;;
64395;SDS011;50717;53.360;6.290;2023-03-23T15:53:27;16.50;;;3.25;;
64395;SDS011;50717;53.360;6.290;2023-03-23T15:55:55;12.75;;;2.70;;
64395;SDS011;50717;53.360;6.290;2023-03-23T15:58:25;16.75;;;4.45;;
64395;SDS011;50717;53.360;6.290;2023-03-23T16:00:51;12.80;;;3.47;;
64395;SDS011;50717;53.360;6.290;2023-03-23T16:03:22;16.77;;;3.60;;
64395;SDS011;50717;53.360;6.290;2023-03-23T16:05:51;16.45;;;4.03;;
64395;SDS011;50717;53.360;6.290;2023-03-23T16:08:21;12.70;;;3.47;;
64395;SDS011;50717;53.360;6.290;2023-03-23T16:10:48;17.40;;;3.90;;
64395;SDS011;50717;53.360;6.290;2023-03-23T16:13:14;19.63;;;4.30;;
64395;SDS011;50717;53.360;6.290;2023-03-23T16:15:40;23.10;;;5.13;;
64395;SDS011;50717;53.360;6.290;2023-03-23T16:20:40;26.20;;;7.95;;
64395;SDS011;50717;53.360;6.290;2023-03-23T16:25:31;24.55;;;5.85;;
64395;SDS011;50717;53.360;6.290;2023-03-23T16:30:23;27.55;;;6.03;;
64395;SDS011;50717;53.360;6.290;2023-03-23T16:32:52;31.40;;;5.72;;
64395;SDS011;50717;53.360;6.290;2023-03-23T16:35:18;18.40;;;5.55;;
64395;SDS011;50717;53.360;6.290;2023-03-23T16:37:49;24.00;;;5.07;;
64395;SDS011;50717;53.360;6.290;2023-03-23T16:40:17;31.17;;;7.53;;
64395;SDS011;50717;53.360;6.290;2023-03-23T16:42:44;29.00;;;6.43;;
64395;SDS011;50717;53.360;6.290;2023-03-23T16:45:11;27.98;;;6.65;;
64395;SDS011;50717;53.360;6.290;2023-03-23T16:47:38;28.05;;;6.03;;
64395;SDS011;50717;53.360;6.290;2023-03-23T16:50:05;25.20;;;6.00;;
64395;SDS011;50717;53.360;6.290;2023-03-23T16:52:35;28.25;;;5.82;;
64395;SDS011;50717;53.360;6.290;2023-03-23T16:55:00;23.17;;;5.25;;
64395;SDS011;50717;53.360;6.290;2023-03-23T16:57:26;27.63;;;6.13;;
64395;SDS011;50717;53.360;6.290;2023-03-23T16:59:52;24.15;;;5.15;;
64395;SDS011;50717;53.360;6.290;2023-03-23T17:02:18;25.55;;;5.45;;
64395;SDS011;50717;53.360;6.290;2023-03-23T17:04:44;21.85;;;5.07;;
64395;SDS011;50717;53.360;6.290;2023-03-23T17:07:11;24.75;;;5.78;;
64395;SDS011;50717;53.360;6.290;2023-03-23T17:09:38;27.15;;;5.20;;
64395;SDS011;50717;53.360;6.290;2023-03-23T17:12:04;27.33;;;5.35;;
64395;SDS011;50717;53.360;6.290;2023-03-23T17:14:30;28.83;;;5.22;;
64395;SDS011;50717;53.360;6.290;2023-03-23T17:16:57;26.13;;;5.28;;
64395;SDS011;50717;53.360;6.290;2023-03-23T17:19:23;33.20;;;6.43;;
64395;SDS011;50717;53.360;6.290;2023-03-23T17:21:48;32.15;;;5.32;;
64395;SDS011;50717;53.360;6.290;2023-03-23T17:24:15;26.98;;;5.57;;
64395;SDS011;50717;53.360;6.290;2023-03-23T17:29:07;29.38;;;5.70;;
64395;SDS011;50717;53.360;6.290;2023-03-23T17:31:33;26.83;;;4.55;;
64395;SDS011;50717;53.360;6.290;2023-03-23T17:36:24;34.65;;;6.43;;
64395;SDS011;50717;53.360;6.290;2023-03-23T17:38:51;28.17;;;5.60;;
64395;SDS011;50717;53.360;6.290;2023-03-23T17:41:16;29.75;;;5.38;;
64395;SDS011;50717;53.360;6.290;2023-03-23T17:43:45;30.45;;;5.25;;
64395;SDS011;50717;53.360;6.290;2023-03-23T17:46:11;32.22;;;5.55;;
64395;SDS011;50717;53.360;6.290;2023-03-23T17:48:37;28.38;;;5.72;;
64395;SDS011;50717;53.360;6.290;2023-03-23T17:51:03;32.85;;;5.70;;